Rugby, ND

5:37 AM CDT on October 02, 2014 (GMT -0500)
Rugby Municipal | Change Station
CLOSE
Current Station
Airport
Location: Rugby,
Elevation: 1549 ft
Nearby Weather Stations

Elev 1549 ft 48.39 °N, 100.02 °W | Updated 22 minutes ago

Clear
Clear
39 °F
Feels Like 36 °F
N
5
Wind Variable Wind from West

Today
High -- | Low -- °F
--% Chance of Precip.
Yesterday
High -- | Low -- °F
Precip. -- in
7:40 AM 7:16 PM
First Quarter, 57% visible
Pressure 29.82 in
Visibility 3.0 miles
Clouds Clear
Windchill 36 °F
Dew Point 39 °F
Humidity 100%
Rainfall 0.00 in
Snow Depth Not available.
UV 0 out of 12
Pollen .40 out of 12
Air Quality Not available.
Flu Activity Not available.
METAR KRUG 021015Z AUTO 26004KT 3SM BR CLR 04/04 A2982 RMK AO2

More Conditions Fewer Conditions

Pressure 29.82 in
Visibility 3.0 miles
Clouds Clear
Windchill 36 °F
Dew Point 39 °F
Humidity 100%
Rainfall 0.00 in
Snow Depth Not available.
UV 0 out of 12
Pollen .40 out of 12
Air Quality Not available.
Flu Activity Not available.
METAR KRUG 021015Z AUTO 26004KT 3SM BR CLR 04/04 A2982 RMK AO2

More Conditions Fewer Conditions

10-Day Weather Forecast

Almanac

Astronomy

Oct. 02, 2014 Rise Set
Actual Time 7:40 AM CDT 7:16 PM CDT
Civil Twilight 7:09 AM CDT 7:48 PM CDT
Nautical Twilight 6:33 AM CDT 8:24 PM CDT
Astronomical Twilight 5:56 AM CDT 9:01 PM CDT
Moon 3:49 PM CDT 12:33 AM CDT
Length of Visible Light 12h 38m
Length of Day
11h 36m
Tomorrow will be 3m 29s shorter.
First Quarter, 57% of the Moon is Illuminated
Today
First Quarter
Oct 8
Full
Oct 15
Last Quarter
Oct 23
New
Oct 30
First Quarter

Today's Extremes

State Highs State Lows

Community

WunderPhotos

Upload Photos

1,758,210 photos uploaded!

WunderBlogs® & News

Nearby

Snow Depth

Station Depth Elevation
No new snow has been reported.

Earthquake Activity

City Distance Mag. Time & Date
No recent earthquake activity has been reported nearby.
Minimum magnitude displayed is 2.5.

Coastal Water Temperatures

Place Temperature
No Stations Reporting

Nearby Weather Stations